Weather at Accomack County Airport

Public forecast

Using degrees Fahrenheit for public forecast. Weather courtesy of forecast.io.

Current aviation weather report (METAR) for Accomack County Airport

2023/02/01 05:55 (retrieved 55 minutes ago)

KMFV 010555Z AUTO 01005KT 7SM OVC006 02/01 A3015 RMK AO2 T00150005 10030 20015

Closest aviation forecast (TAF) to Accomack County Airport

Closest forecast is Salisbury Ocean City Wicomico Regional Airport, 43.3 nm (80.2 km) NNE.

2023/02/01 06:12 (retrieved 38 minutes ago)

TAF KSBY 010520Z 0106/0206 02005KT 5SM -RA BR SCT007 OVC015 FM010800 01005KT 3SM -RA BR OVC007 FM011000 36007KT 6SM -RASN BR OVC006 FM011400 34009KT P6SM OVC015 FM011600 34011KT P6SM BKN035 FM011800 34011KT P6SM SCT060 BKN150